createdAt,value
2022-08-14T00:02:01.401Z,101156.53
2022-08-14T00:04:34.932Z,101153.22
2022-08-14T00:07:14.166Z,101153.38
2022-08-14T00:10:02.598Z,101143.06
2022-08-14T00:12:44.015Z,101155.16
2022-08-14T00:15:24.282Z,101154.50
2022-08-14T00:17:53.375Z,101149.34
2022-08-14T00:20:31.160Z,101151.50
2022-08-14T00:23:12.333Z,101146.72
2022-08-14T00:25:59.052Z,101151.34
2022-08-14T00:28:35.663Z,101142.22
2022-08-14T00:31:03.398Z,101143.75
2022-08-14T00:33:52.526Z,101133.59
2022-08-14T00:36:36.593Z,101135.25
2022-08-14T00:39:06.613Z,101147.22
2022-08-14T00:41:38.802Z,101144.88
2022-08-14T00:44:06.609Z,101149.63
2022-08-14T00:46:33.703Z,101146.63
2022-08-14T00:49:00.932Z,101142.78
2022-08-14T00:51:38.080Z,101142.63
2022-08-14T00:54:11.012Z,101136.97
2022-08-14T00:56:44.787Z,101139.59
2022-08-14T00:59:11.876Z,101134.78
2022-08-14T01:01:44.341Z,101137.09
2022-08-14T01:04:51.648Z,101140.25
2022-08-14T01:06:59.066Z,101138.09
2022-08-14T01:09:26.639Z,101128.91
2022-08-14T01:12:02.769Z,101128.47
2022-08-14T01:14:30.713Z,101129.91
2022-08-14T01:16:57.849Z,101134.72
2022-08-14T01:19:51.002Z,101129.72
2022-08-14T01:22:20.722Z,101128.88
2022-08-14T01:24:53.484Z,101129.72
2022-08-14T01:27:24.207Z,101135.88
2022-08-14T01:30:03.201Z,101130.59
2022-08-14T01:32:37.468Z,101132.88
2022-08-14T01:35:18.699Z,101129.72
2022-08-14T01:37:56.459Z,101128.75
2022-08-14T01:40:33.069Z,101136.38
2022-08-14T01:43:07.819Z,101131.94
2022-08-14T01:45:40.780Z,101129.63
2022-08-14T01:48:13.481Z,101133.28
2022-08-14T01:50:42.318Z,101128.16
2022-08-14T01:53:10.484Z,101136.28
2022-08-14T01:55:40.258Z,101128.81
2022-08-14T01:58:19.526Z,101122.53
2022-08-14T02:00:55.438Z,101124.19
2022-08-14T02:03:24.523Z,101117.09
2022-08-14T02:06:03.485Z,101116.91
2022-08-14T02:08:34.715Z,101123.69
2022-08-14T02:11:17.177Z,101124.00
2022-08-14T02:13:56.662Z,101124.50
2022-08-14T02:16:26.385Z,101118.53
2022-08-14T02:19:01.084Z,101119.63
2022-08-14T02:21:31.757Z,101118.13
2022-08-14T02:24:38.879Z,101126.56
2022-08-14T02:28:23.171Z,101127.03
2022-08-14T02:29:59.251Z,101123.38
2022-08-14T02:32:30.393Z,101120.06
2022-08-14T02:35:10.459Z,101117.06
2022-08-14T02:37:47.179Z,101115.56
2022-08-14T02:40:18.372Z,101113.91
2022-08-14T02:42:54.876Z,101115.69
2022-08-14T02:45:38.234Z,101108.72
2022-08-14T02:49:04.567Z,101098.47
2022-08-14T02:51:03.657Z,101096.56
2022-08-14T02:53:31.591Z,101095.06
2022-08-14T02:56:03.347Z,101099.38
2022-08-14T02:58:50.615Z,101102.78
2022-08-14T03:01:22.113Z,101101.16
2022-08-14T03:03:51.604Z,101099.31
2022-08-14T03:06:35.013Z,101095.88
2022-08-14T03:09:13.034Z,101087.75
2022-08-14T03:11:44.640Z,101092.69
2022-08-14T03:14:12.495Z,101092.16
2022-08-14T03:16:45.469Z,101094.66
2022-08-14T03:19:16.269Z,101093.66
2022-08-14T03:21:46.485Z,101087.06
2022-08-14T03:24:23.278Z,101087.44
2022-08-14T03:26:56.086Z,101092.19
2022-08-14T03:29:26.432Z,101090.03
2022-08-14T03:31:53.707Z,101090.19
2022-08-14T03:34:24.535Z,101077.63
2022-08-14T03:37:51.594Z,101087.53
2022-08-14T03:39:58.998Z,101080.41
2022-08-14T03:42:31.102Z,101075.38
2022-08-14T03:45:25.560Z,101083.13
2022-08-14T03:47:56.034Z,101081.44
2022-08-14T03:50:30.802Z,101079.47
2022-08-14T03:53:03.221Z,101076.16
2022-08-14T03:55:30.757Z,101075.72
2022-08-14T03:57:58.335Z,101067.59
2022-08-14T04:00:42.808Z,101062.28
2022-08-14T04:03:16.700Z,101053.84
2022-08-14T04:05:49.099Z,101059.66
2022-08-14T04:08:22.938Z,101060.81
2022-08-14T04:10:57.652Z,101049.88
2022-08-14T04:13:27.951Z,101061.38
2022-08-14T04:16:02.302Z,101061.69
2022-08-14T04:18:33.968Z,101064.53
2022-08-14T04:21:01.230Z,101061.56
2022-08-14T04:23:29.775Z,101066.19
2022-08-14T04:26:01.869Z,101072.00
2022-08-14T04:29:05.331Z,101063.91
2022-08-14T04:32:56.465Z,101070.84
2022-08-14T04:34:06.353Z,101063.28
2022-08-14T04:36:54.616Z,101066.00
2022-08-14T04:39:46.249Z,101064.66
2022-08-14T04:42:32.090Z,101058.09
2022-08-14T04:45:01.084Z,101059.69
2022-08-14T04:47:48.273Z,101067.16
2022-08-14T04:50:31.337Z,101060.22
2022-08-14T04:53:07.099Z,101059.69
2022-08-14T04:55:37.803Z,101059.16
2022-08-14T04:58:05.486Z,101056.69
2022-08-14T05:00:33.445Z,101056.75
2022-08-14T05:03:03.205Z,101051.94
2022-08-14T05:05:34.539Z,101057.28
2022-08-14T05:08:32.332Z,101058.97
2022-08-14T05:11:03.273Z,101058.66
2022-08-14T05:13:47.504Z,101062.13
2022-08-14T05:16:22.701Z,101065.75
2022-08-14T05:19:18.127Z,101068.47
2022-08-14T05:22:00.464Z,101068.66
2022-08-14T05:24:24.797Z,101065.25
2022-08-14T05:26:51.995Z,101061.91
2022-08-14T05:29:22.686Z,101051.66
2022-08-14T05:31:49.512Z,101048.16
2022-08-14T05:34:23.810Z,101049.16
2022-08-14T05:37:01.906Z,101041.22
2022-08-14T05:39:29.893Z,101046.69
2022-08-14T05:41:56.753Z,101050.19
2022-08-14T05:44:29.226Z,101048.25
2022-08-14T05:46:56.375Z,101051.88
2022-08-14T05:49:32.785Z,101047.78
2022-08-14T05:52:03.795Z,101046.94
2022-08-14T05:54:36.886Z,101050.13
2022-08-14T05:57:04.968Z,101043.97
2022-08-14T05:59:38.741Z,101042.16
2022-08-14T06:02:11.257Z,101038.25
2022-08-14T06:04:39.041Z,101040.72
2022-08-14T06:07:06.705Z,101034.94
2022-08-14T06:09:36.088Z,101037.09
2022-08-14T06:12:10.432Z,101030.28
2022-08-14T06:14:39.232Z,101023.97
2022-08-14T06:17:07.459Z,101025.78
2022-08-14T06:19:34.300Z,101024.63
2022-08-14T06:22:06.676Z,101013.00
2022-08-14T06:24:35.779Z,101012.16
2022-08-14T06:27:09.968Z,101007.00
2022-08-14T06:29:38.618Z,101006.69
2022-08-14T06:32:37.574Z,101008.84
2022-08-14T06:35:12.647Z,100999.03
2022-08-14T06:37:51.181Z,101005.94
2022-08-14T06:40:34.390Z,101001.59
2022-08-14T06:43:07.096Z,101002.09
2022-08-14T06:45:38.922Z,101014.53
2022-08-14T06:48:19.043Z,100997.88
2022-08-14T06:50:48.559Z,101004.97
2022-08-14T06:53:19.907Z,100997.66
2022-08-14T06:55:57.967Z,101000.75
2022-08-14T06:58:30.846Z,100998.75
2022-08-14T07:01:23.065Z,100991.56
2022-08-14T07:04:22.824Z,101004.84
2022-08-14T07:06:54.847Z,101002.34
2022-08-14T07:09:44.247Z,100988.88
2022-08-14T07:12:35.999Z,100986.47
2022-08-14T07:15:13.764Z,100991.47
2022-08-14T07:17:49.827Z,100990.00
2022-08-14T07:20:30.595Z,100995.97
2022-08-14T07:23:11.232Z,100989.94
2022-08-14T07:25:48.596Z,100989.50
2022-08-14T07:28:23.826Z,100974.16
2022-08-14T07:30:56.279Z,100985.00
2022-08-14T07:33:29.509Z,100989.44
2022-08-14T07:36:01.049Z,100989.06
2022-08-14T07:38:33.985Z,100977.41
2022-08-14T07:41:11.778Z,100978.22
2022-08-14T07:43:44.041Z,100988.31
2022-08-14T07:46:14.789Z,100988.88
2022-08-14T07:48:48.621Z,100977.56
2022-08-14T07:51:15.300Z,100986.94
2022-08-14T07:53:42.381Z,100980.63
2022-08-14T07:56:36.780Z,100982.56
2022-08-14T07:58:58.895Z,100983.09
2022-08-14T08:01:27.447Z,100984.38
2022-08-14T08:04:00.053Z,100991.91
2022-08-14T08:06:28.300Z,100992.63
2022-08-14T08:09:02.897Z,100971.09
2022-08-14T08:11:37.473Z,100980.00
2022-08-14T08:14:10.309Z,100982.13
2022-08-14T08:16:38.309Z,100982.72
2022-08-14T08:19:13.948Z,100983.94
2022-08-14T08:21:43.593Z,100976.69
2022-08-14T08:24:10.830Z,100978.53
2022-08-14T08:26:39.252Z,100977.59
2022-08-14T08:29:07.162Z,100964.50
2022-08-14T08:31:52.516Z,100964.69
2022-08-14T08:34:23.480Z,100966.16
2022-08-14T08:36:50.551Z,100973.78
2022-08-14T08:39:30.829Z,100971.50
2022-08-14T08:42:04.280Z,100963.94
2022-08-14T08:44:34.532Z,100964.38
2022-08-14T08:47:06.639Z,100966.72
2022-08-14T08:49:52.993Z,100974.00
2022-08-14T08:52:31.733Z,100970.47
2022-08-14T08:55:00.740Z,100969.06
2022-08-14T08:57:35.909Z,100972.50
2022-08-14T09:00:24.585Z,100972.00
2022-08-14T09:02:57.360Z,100968.22
2022-08-14T09:05:24.552Z,100970.34
2022-08-14T09:07:52.862Z,100971.13
2022-08-14T09:10:23.778Z,100971.78
2022-08-14T09:12:56.179Z,100962.34
2022-08-14T09:15:24.212Z,100960.47
2022-08-14T09:17:51.963Z,100954.25
2022-08-14T09:20:25.959Z,100955.53
2022-08-14T09:22:56.437Z,100948.78
2022-08-14T09:26:00.196Z,100946.34
2022-08-14T09:28:10.128Z,100939.81
2022-08-14T09:30:41.205Z,100934.88
2022-08-14T09:33:22.699Z,100933.88
2022-08-14T09:35:58.234Z,100936.22
2022-08-14T09:38:50.991Z,100933.69
2022-08-14T09:42:20.221Z,100928.09
2022-08-14T09:44:51.827Z,100930.88
2022-08-14T09:47:19.290Z,100919.63
2022-08-14T09:49:52.989Z,100923.56
2022-08-14T09:52:23.834Z,100914.09
2022-08-14T09:55:00.377Z,100913.34
2022-08-14T09:57:31.019Z,100909.22
2022-08-14T09:59:58.948Z,100908.41
2022-08-14T10:02:32.227Z,100919.75
2022-08-14T10:05:04.005Z,100922.84
2022-08-14T10:07:35.641Z,100909.44
2022-08-14T10:10:23.316Z,100902.63
2022-08-14T10:12:54.858Z,100896.03
2022-08-14T10:15:30.044Z,100897.25
2022-08-14T10:18:17.332Z,100901.34
2022-08-14T10:20:58.350Z,100899.09
2022-08-14T10:23:27.749Z,100898.53
2022-08-14T10:26:07.701Z,100896.25
2022-08-14T10:29:18.821Z,100894.41
2022-08-14T10:31:40.290Z,100882.25
2022-08-14T10:34:19.031Z,100886.16
2022-08-14T10:36:50.163Z,100884.69
2022-08-14T10:39:27.477Z,100888.16
2022-08-14T10:42:16.651Z,100878.94
2022-08-14T10:44:49.155Z,100883.03
2022-08-14T10:47:39.281Z,100871.47
2022-08-14T10:50:14.802Z,100876.56
2022-08-14T10:52:46.539Z,100876.69
2022-08-14T10:55:19.393Z,100865.41
2022-08-14T10:57:57.009Z,100861.94
2022-08-14T11:00:30.327Z,100860.63
2022-08-14T11:03:11.043Z,100864.69
2022-08-14T11:05:54.985Z,100862.19
2022-08-14T11:08:33.803Z,100857.00
2022-08-14T11:11:03.834Z,100864.63
2022-08-14T11:13:31.770Z,100863.50
2022-08-14T11:16:01.764Z,100858.28
2022-08-14T11:18:35.788Z,100845.66
2022-08-14T11:21:06.953Z,100841.56
2022-08-14T11:23:43.672Z,100842.38
2022-08-14T11:26:12.421Z,100843.53
2022-08-14T11:28:47.543Z,100848.47
2022-08-14T11:31:19.902Z,100853.22
2022-08-14T11:33:57.861Z,100844.88
2022-08-14T11:37:02.478Z,100837.59
2022-08-14T11:39:34.924Z,100841.38
2022-08-14T11:42:07.676Z,100836.91
2022-08-14T11:45:00.809Z,100835.41
2022-08-14T11:47:35.333Z,100830.66
2022-08-14T11:50:25.001Z,100822.09
2022-08-14T11:53:04.430Z,100819.13
2022-08-14T11:55:38.106Z,100814.78
2022-08-14T11:58:11.227Z,100813.66
2022-08-14T12:00:53.877Z,100806.31
2022-08-14T12:03:27.223Z,100809.69
2022-08-14T12:06:29.397Z,100801.22
2022-08-14T12:09:00.276Z,100810.84
2022-08-14T12:11:43.276Z,100814.19
2022-08-14T12:14:30.605Z,100802.00
2022-08-14T12:17:05.059Z,100805.28
2022-08-14T12:19:33.830Z,100800.59
2022-08-14T12:22:02.533Z,100796.88
2022-08-14T12:24:36.877Z,100793.88
2022-08-14T12:27:07.187Z,100786.81
2022-08-14T12:29:34.906Z,100783.84
2022-08-14T12:32:08.820Z,100765.72
2022-08-14T12:34:45.021Z,100785.50
2022-08-14T12:37:12.142Z,100776.31
2022-08-14T12:39:40.058Z,100777.00
2022-08-14T12:42:08.072Z,100775.03
2022-08-14T12:44:39.724Z,100774.81
2022-08-14T12:47:16.893Z,100777.72
2022-08-14T12:49:57.865Z,100781.16
2022-08-14T12:52:36.238Z,100782.13
2022-08-14T12:55:18.231Z,100770.78
2022-08-14T12:57:47.005Z,100771.31
2022-08-14T13:00:25.469Z,100761.41
2022-08-14T13:02:55.721Z,100756.91
2022-08-14T13:05:31.706Z,100753.16
2022-08-14T13:08:03.642Z,100754.56
2022-08-14T13:10:52.035Z,100758.34
2022-08-14T13:13:23.254Z,100760.28
2022-08-14T13:15:57.469Z,100754.31
2022-08-14T13:18:30.374Z,100756.69
2022-08-14T13:21:02.191Z,100743.03
2022-08-14T13:23:34.431Z,100749.53
2022-08-14T13:26:03.778Z,100741.53
2022-08-14T13:28:33.687Z,100740.97
2022-08-14T13:31:11.228Z,100744.94
2022-08-14T13:33:40.795Z,100735.09
2022-08-14T13:36:09.346Z,100736.25
2022-08-14T13:38:36.935Z,100728.78
2022-08-14T13:41:04.037Z,100728.94
2022-08-14T13:43:36.966Z,100720.59
2022-08-14T13:46:18.433Z,100711.59
2022-08-14T13:48:45.817Z,100707.94
2022-08-14T13:51:16.416Z,100714.00
2022-08-14T13:54:06.844Z,100705.34
2022-08-14T13:56:40.776Z,100707.16
2022-08-14T13:59:09.877Z,100694.22
2022-08-14T14:01:43.859Z,100690.47
2022-08-14T14:04:18.982Z,100689.41
2022-08-14T14:06:49.110Z,100693.59
2022-08-14T14:09:26.647Z,100683.50
2022-08-14T14:12:04.061Z,100684.84
2022-08-14T14:14:51.146Z,100685.00
2022-08-14T14:17:24.407Z,100681.88
2022-08-14T14:19:52.449Z,100671.06
2022-08-14T14:22:35.730Z,100671.56
2022-08-14T14:25:14.417Z,100667.97
2022-08-14T14:27:49.054Z,100666.31
2022-08-14T14:30:45.995Z,100663.13
2022-08-14T14:33:28.947Z,100654.84
2022-08-14T14:35:59.208Z,100654.66
2022-08-14T14:38:30.736Z,100654.78
2022-08-14T14:41:00.840Z,100648.28
2022-08-14T14:43:28.966Z,100641.88
2022-08-14T14:45:58.662Z,100640.69
2022-08-14T14:48:29.414Z,100644.03
2022-08-14T14:51:01.576Z,100648.69
2022-08-14T14:53:39.265Z,100641.31
2022-08-14T14:56:50.166Z,100648.75
2022-08-14T14:58:56.808Z,100643.84
2022-08-14T15:01:25.256Z,100647.41
2022-08-14T15:03:55.452Z,100643.53
2022-08-14T15:06:29.007Z,100642.47
2022-08-14T15:08:59.983Z,100644.72
2022-08-14T15:11:30.141Z,100642.13
2022-08-14T15:13:57.288Z,100642.19
2022-08-14T15:16:24.858Z,100640.66
2022-08-14T15:18:51.646Z,100644.09
2022-08-14T15:21:20.948Z,100637.78
2022-08-14T15:23:48.157Z,100644.84
2022-08-14T15:26:24.503Z,100647.88
2022-08-14T15:29:05.861Z,100639.56
2022-08-14T15:31:36.141Z,100640.81
2022-08-14T15:34:43.268Z,100632.56
2022-08-14T15:37:12.897Z,100642.53
2022-08-14T15:39:44.362Z,100631.00
2022-08-14T15:42:15.834Z,100624.22
2022-08-14T15:44:56.781Z,100625.91
2022-08-14T15:47:36.288Z,100623.66
2022-08-14T15:50:09.637Z,100629.00
2022-08-14T15:52:37.611Z,100620.66
2022-08-14T15:55:12.829Z,100615.69
2022-08-14T15:58:01.529Z,100615.88
2022-08-14T16:00:49.715Z,100614.56
2022-08-14T16:03:18.078Z,100616.47
2022-08-14T16:05:52.232Z,100613.19
2022-08-14T16:08:28.771Z,100615.88
2022-08-14T16:11:08.248Z,100615.06
2022-08-14T16:13:47.813Z,100610.56
2022-08-14T16:16:49.812Z,100621.03
2022-08-14T16:19:21.325Z,100606.31
2022-08-14T16:22:01.769Z,100607.16
2022-08-14T16:25:01.916Z,100601.56
2022-08-14T16:27:40.974Z,100599.94
2022-08-14T16:30:24.426Z,100599.06
2022-08-14T16:32:59.281Z,100607.00
2022-08-14T16:35:42.698Z,100588.91
2022-08-14T16:38:29.440Z,100590.53
2022-08-14T16:41:25.483Z,100589.78
2022-08-14T16:44:13.844Z,100581.84
2022-08-14T16:46:57.416Z,100582.50
2022-08-14T16:49:50.490Z,100575.66
2022-08-14T16:52:25.912Z,100584.00
2022-08-14T16:55:03.724Z,100579.97
2022-08-14T16:57:33.695Z,100571.19
2022-08-14T17:00:00.944Z,100579.06
2022-08-14T17:02:42.839Z,100566.84
2022-08-14T17:05:17.822Z,100564.63
2022-08-14T17:08:32.909Z,100570.16
2022-08-14T17:11:09.907Z,100575.00
2022-08-14T17:13:57.708Z,100572.47
2022-08-14T17:16:26.972Z,100564.44
2022-08-14T17:19:00.535Z,100567.66
2022-08-14T17:21:37.236Z,100567.31
2022-08-14T17:24:51.420Z,100568.09
2022-08-14T17:27:04.062Z,100569.72
2022-08-14T17:29:34.894Z,100568.34
2022-08-14T17:32:21.884Z,100569.00
2022-08-14T17:34:57.695Z,100558.06
2022-08-14T17:40:30.792Z,100565.28
2022-08-14T17:43:02.117Z,100562.91
2022-08-14T17:45:41.501Z,100556.41
2022-08-14T17:49:14.441Z,100555.50
2022-08-14T17:51:14.188Z,100551.63
2022-08-14T17:53:52.836Z,100555.78
2022-08-14T17:56:21.217Z,100558.44
2022-08-14T17:58:49.402Z,100552.69
2022-08-14T18:01:23.683Z,100559.63
2022-08-14T18:03:53.873Z,100566.22
2022-08-14T18:06:40.081Z,100565.59
2022-08-14T18:09:24.972Z,100566.81
2022-08-14T18:12:09.479Z,100577.03
2022-08-14T18:14:57.044Z,100580.41
2022-08-14T18:17:26.553Z,100574.22
2022-08-14T18:19:53.401Z,100580.38
2022-08-14T18:22:32.347Z,100582.59
2022-08-14T18:25:05.277Z,100580.53
2022-08-14T18:27:49.586Z,100575.91
2022-08-14T18:30:31.965Z,100574.63
2022-08-14T18:33:16.921Z,100579.31
2022-08-14T18:35:58.172Z,100579.53
2022-08-14T18:38:45.794Z,100567.69
2022-08-14T18:41:36.130Z,100572.94
2022-08-14T18:44:03.466Z,100575.91
2022-08-14T18:46:59.735Z,100577.94
2022-08-14T18:49:16.737Z,100578.06
2022-08-14T18:51:45.807Z,100572.81
2022-08-14T18:54:32.925Z,100575.59
2022-08-14T18:57:03.193Z,100574.03
2022-08-14T18:59:36.217Z,100572.81
2022-08-14T19:02:30.235Z,100571.91
2022-08-14T19:05:02.431Z,100565.41
2022-08-14T19:07:34.031Z,100572.75
2022-08-14T19:10:10.215Z,100579.09
2022-08-14T19:12:52.946Z,100581.88
2022-08-14T19:15:28.816Z,100570.53
2022-08-14T19:18:10.985Z,100574.94
2022-08-14T19:20:53.300Z,100573.28
2022-08-14T19:23:42.902Z,100566.31
2022-08-14T19:26:35.933Z,100567.88
2022-08-14T19:29:37.801Z,100575.78
2022-08-14T19:32:40.758Z,100573.28
2022-08-14T19:35:18.281Z,100570.63
2022-08-14T19:37:56.178Z,100578.59
2022-08-14T19:40:35.258Z,100577.03
2022-08-14T19:43:06.400Z,100575.59
2022-08-14T19:45:34.242Z,100571.94
2022-08-14T19:48:02.922Z,100570.56
2022-08-14T19:50:40.221Z,100572.75
2022-08-14T19:53:16.922Z,100560.47
2022-08-14T19:55:57.380Z,100557.78
2022-08-14T19:58:54.925Z,100549.38
2022-08-14T20:01:37.127Z,100550.25
2022-08-14T20:04:46.807Z,100543.88
2022-08-14T20:06:57.114Z,100547.91
2022-08-14T20:11:11.008Z,100545.53
2022-08-14T20:12:29.004Z,100540.84
2022-08-14T20:15:10.224Z,100536.59
2022-08-14T20:17:40.339Z,100534.16
2022-08-14T20:20:31.616Z,100526.44
2022-08-14T20:23:10.897Z,100523.75
2022-08-14T20:25:45.434Z,100510.81
2022-08-14T20:28:30.763Z,100508.81
2022-08-14T20:31:17.815Z,100496.72
2022-08-14T20:34:04.567Z,100492.31
2022-08-14T20:36:36.956Z,100491.66
2022-08-14T20:39:08.381Z,100493.00
2022-08-14T20:41:35.081Z,100481.84
2022-08-14T20:44:28.741Z,100481.59
2022-08-14T20:47:03.700Z,100479.25
2022-08-14T20:49:36.450Z,100478.13
2022-08-14T20:52:18.752Z,100483.31
2022-08-14T20:54:51.240Z,100485.31
2022-08-14T20:57:20.189Z,100483.66
2022-08-14T20:59:52.893Z,100484.13
2022-08-14T21:02:28.548Z,100483.78
2022-08-14T21:05:16.339Z,100476.38
2022-08-14T21:07:51.194Z,100483.66
2022-08-14T21:10:33.240Z,100479.25
2022-08-14T21:14:09.051Z,100474.09
2022-08-14T21:18:32.549Z,100464.75
2022-08-14T21:21:04.623Z,100462.63
2022-08-14T21:23:37.233Z,100455.31
2022-08-14T21:26:52.401Z,100447.72
2022-08-14T21:29:15.891Z,100447.88
2022-08-14T21:31:55.177Z,100441.28
2022-08-14T21:34:27.084Z,100448.03
2022-08-14T21:39:24.714Z,100439.88
2022-08-14T21:41:58.590Z,100448.13
2022-08-14T21:44:43.313Z,100444.03
2022-08-14T21:47:12.840Z,100433.22
2022-08-14T21:49:48.035Z,100441.63
2022-08-14T21:52:51.833Z,100437.00
2022-08-14T21:55:10.346Z,100435.41
2022-08-14T21:58:45.788Z,100434.94
2022-08-14T22:00:36.602Z,100421.56
2022-08-14T22:03:09.875Z,100425.56
2022-08-14T22:05:41.363Z,100425.03
2022-08-14T22:08:12.195Z,100418.41
2022-08-14T22:10:42.489Z,100417.06
2022-08-14T22:13:14.797Z,100411.75
2022-08-14T22:15:49.450Z,100415.91
2022-08-14T22:18:20.345Z,100408.41
2022-08-14T22:20:53.379Z,100410.72
2022-08-14T22:23:21.700Z,100404.47
2022-08-14T22:25:51.185Z,100403.66
2022-08-14T22:28:32.700Z,100401.81
2022-08-14T22:31:02.857Z,100406.13
2022-08-14T22:33:30.952Z,100399.00
2022-08-14T22:36:00.339Z,100395.22
2022-08-14T22:38:37.530Z,100380.59
2022-08-14T22:41:27.925Z,100381.56
2022-08-14T22:44:06.813Z,100381.09
2022-08-14T22:46:34.781Z,100377.91
2022-08-14T22:49:16.963Z,100382.38
2022-08-14T22:51:51.244Z,100375.00
2022-08-14T22:54:51.860Z,100382.03
2022-08-14T22:57:06.495Z,100377.19
2022-08-14T22:59:38.998Z,100362.59
2022-08-14T23:02:30.184Z,100356.84
2022-08-14T23:04:58.103Z,100350.38
2022-08-14T23:08:58.657Z,100339.97
2022-08-14T23:10:32.762Z,100334.88
2022-08-14T23:13:02.551Z,100322.03
2022-08-14T23:15:30.146Z,100326.47
2022-08-14T23:17:57.684Z,100318.72
2022-08-14T23:20:29.714Z,100317.34
2022-08-14T23:22:57.042Z,100327.59
2022-08-14T23:25:56.845Z,100326.25
2022-08-14T23:28:33.659Z,100325.06
2022-08-14T23:31:09.840Z,100324.72
2022-08-14T23:33:42.028Z,100322.72
2022-08-14T23:36:32.336Z,100314.13
2022-08-14T23:39:10.539Z,100314.84
2022-08-14T23:41:52.542Z,100314.19
2022-08-14T23:44:23.575Z,100324.66
2022-08-14T23:46:52.802Z,100319.38
2022-08-14T23:49:24.690Z,100313.94
2022-08-14T23:52:51.126Z,100316.25
2022-08-14T23:54:48.006Z,100313.59
2022-08-14T23:57:19.205Z,100309.59
2022-08-14T23:59:54.652Z,100305.16
